Time;durP1;ratioP1;P1;durP2;ratioP2;P2;SDS_P1;SDS_P2;PMS_P1;PMS_P2;Temp;Humidity;BMP_temperature;BMP_pressure;BME280_temperature;BME280_humidity;BME280_pressure;Samples;Min_cycle;Max_cycle;Signal;HPM_P1;HPM_P2
2021/05/27 00:00:33;;;;;;;2.35;0.30;;;12.70;99.90;;;12.23;74.16;100545.16;4968465;28;20054;-54
2021/05/27 00:03:00;;;;;;;2.08;0.30;;;12.70;99.90;;;12.26;73.48;100547.47;4965356;28;20050;-54
2021/05/27 00:05:27;;;;;;;1.83;0.30;;;12.70;99.90;;;12.22;73.78;100542.69;4948321;28;20027;-55
2021/05/27 00:07:54;;;;;;;2.03;0.30;;;12.70;99.90;;;12.14;73.96;100548.69;4968126;28;20139;-57
2021/05/27 00:10:28;;;;;;;4.15;0.35;;;12.70;99.90;;;12.08;74.67;100548.47;4967323;28;20035;-54
2021/05/27 00:12:54;;;;;;;2.75;0.50;;;12.60;99.90;;;12.01;74.73;100545.63;4967794;28;20043;-54
2021/05/27 00:15:23;;;;;;;3.75;0.30;;;12.60;99.90;;;12.00;74.69;100556.22;4967771;28;20654;-51
2021/05/27 00:17:49;;;;;;;3.40;0.45;;;12.50;99.90;;;11.96;74.68;100553.09;4968269;28;20051;-52
2021/05/27 00:20:16;;;;;;;2.55;0.40;;;12.50;99.90;;;11.92;75.13;100556.97;4960307;28;20149;-52
2021/05/27 00:22:43;;;;;;;1.23;0.40;;;12.40;99.90;;;11.85;76.27;100548.09;4967338;28;20039;-56
2021/05/27 00:25:11;;;;;;;5.88;0.40;;;12.40;99.90;;;11.81;76.46;100549.41;4967300;28;20039;-52
2021/05/27 00:27:37;;;;;;;3.05;0.40;;;12.30;99.90;;;11.77;77.08;100543.66;4968434;28;20398;-54
2021/05/27 00:30:05;;;;;;;2.15;0.50;;;12.30;99.90;;;11.73;77.03;100547.50;4967075;28;20077;-53
2021/05/27 00:32:31;;;;;;;1.50;0.40;;;12.30;99.90;;;11.70;77.99;100552.19;4967448;28;20031;-54
2021/05/27 00:34:58;;;;;;;8.70;0.60;;;12.20;99.90;;;11.70;77.15;100552.19;4966308;28;20041;-54
2021/05/27 00:37:24;;;;;;;6.38;0.88;;;12.20;99.90;;;11.66;77.32;100548.25;4966917;28;20031;-54
2021/05/27 00:39:50;;;;;;;1.95;0.35;;;12.20;99.90;;;11.62;77.67;100561.59;4965310;28;20089;-55
2021/05/27 00:42:16;;;;;;;2.20;0.40;;;12.10;99.90;;;11.58;78.11;100555.03;4966982;28;20042;-52
2021/05/27 00:44:43;;;;;;;4.40;0.60;;;12.10;99.90;;;11.57;79.09;100563.00;4967329;28;20511;-54
2021/05/27 00:47:11;;;;;;;2.80;0.47;;;12.10;99.90;;;11.52;78.30;100554.81;4967869;28;20037;-47
2021/05/27 00:49:37;;;;;;;4.40;0.45;;;12.10;99.90;;;11.48;78.83;100556.88;4969315;28;20047;-52
2021/05/27 00:52:04;;;;;;;1.65;0.40;;;12.00;99.90;;;11.46;78.78;100558.81;4970561;28;20339;-55
2021/05/27 00:54:30;;;;;;;2.17;0.40;;;12.00;99.90;;;11.45;78.83;100564.19;4971075;28;20121;-56
2021/05/27 00:56:56;;;;;;;1.55;0.40;;;12.00;99.90;;;11.42;78.72;100565.28;4968678;28;20031;-54
2021/05/27 00:59:22;;;;;;;3.70;0.40;;;11.90;99.90;;;11.39;79.47;100564.78;4969768;28;20035;-54
2021/05/27 01:01:52;;;;;;;3.35;0.55;;;11.90;99.90;;;11.38;79.19;100579.59;4953264;28;20034;-55
2021/05/27 01:04:21;;;;;;;1.42;0.40;;;11.90;99.90;;;11.39;79.41;100572.59;4971032;28;20058;-53
2021/05/27 01:06:47;;;;;;;1.67;0.40;;;11.90;99.90;;;11.39;79.92;100576.03;4970977;28;20570;-55
2021/05/27 01:09:13;;;;;;;4.70;0.65;;;11.90;99.90;;;11.40;78.85;100576.84;4970244;28;20053;-56
2021/05/27 01:11:39;;;;;;;4.43;0.60;;;11.90;99.90;;;11.39;78.99;100583.03;4970913;28;20770;-55
2021/05/27 01:17:07;;;;;;;1.73;1.10;;;11.90;99.90;;;11.46;78.76;100571.03;4967887;28;20058;-54
2021/05/27 01:19:33;;;;;;;3.40;0.60;;;11.90;99.90;;;11.45;78.91;100570.22;4963515;28;20375;-57
2021/05/27 01:21:59;;;;;;;1.33;0.30;;;11.90;99.90;;;11.44;78.98;100565.97;4970206;28;20047;-56
2021/05/27 01:24:25;;;;;;;2.80;0.40;;;11.90;99.90;;;11.42;78.81;100565.28;4971159;28;20042;-55
2021/05/27 01:26:51;;;;;;;7.15;0.40;;;11.90;99.90;;;11.40;78.36;100569.03;4970382;28;20043;-53
2021/05/27 01:29:17;;;;;;;4.45;0.35;;;11.90;99.90;;;11.42;78.36;100564.47;4970726;28;20521;-54
2021/05/27 01:31:43;;;;;;;4.43;0.40;;;11.90;99.90;;;11.43;78.39;100566.13;4952625;28;20034;-55
2021/05/27 01:34:11;;;;;;;1.67;0.40;;;11.90;99.90;;;11.42;78.27;100567.09;4976955;28;20046;-56
2021/05/27 01:36:47;;;;;;;3.53;0.85;;;11.90;99.90;;;11.39;78.81;100559.56;4963563;28;20122;-56
2021/05/27 01:39:13;;;;;;;;;;;11.90;99.90;;;11.36;79.45;100555.44;4970305;28;20125;-55
2021/05/27 01:41:40;;;;;;;3.28;0.50;;;11.90;99.90;;;11.33;78.61;100560.16;4967359;28;19965;-56
2021/05/27 01:44:06;;;;;;;4.22;0.50;;;11.80;99.90;;;11.30;78.76;100566.50;4968812;28;20192;-55
2021/05/27 01:46:32;;;;;;;3.15;0.30;;;11.80;99.90;;;11.30;78.95;100569.94;4952521;28;20117;-51
2021/05/27 01:48:58;;;;;;;3.53;0.50;;;11.80;99.90;;;11.31;78.55;100562.94;4970857;28;20475;-56
2021/05/27 01:51:24;;;;;;;2.53;0.40;;;11.80;99.90;;;11.33;78.51;100561.00;4969751;28;20027;-53
2021/05/27 01:53:50;;;;;;;2.45;0.40;;;11.80;99.90;;;11.34;78.68;100569.63;4970241;28;20062;-56
2021/05/27 01:56:16;;;;;;;3.42;0.80;;;11.80;99.90;;;11.32;78.93;100564.56;4969390;28;20031;-57
2021/05/27 01:58:42;;;;;;;3.17;0.40;;;11.90;99.90;;;11.32;79.01;100553.31;4969904;28;20133;-50
2021/05/27 02:01:08;;;;;;;4.50;0.57;;;11.80;99.90;;;11.31;79.21;100557.72;4969456;28;20045;-55
2021/05/27 02:03:34;;;;;;;2.22;0.60;;;11.80;99.90;;;11.30;79.13;100556.06;4968781;28;20444;-56
2021/05/27 02:06:01;;;;;;;3.55;0.85;;;11.80;99.90;;;11.32;78.91;100558.53;4969721;28;20039;-55
2021/05/27 02:08:27;;;;;;;2.70;0.40;;;11.80;99.90;;;11.28;79.13;100550.16;4970142;28;20043;-56
2021/05/27 02:10:53;;;;;;;4.47;0.40;;;11.80;99.90;;;11.23;79.17;100542.78;4952197;28;20070;-57
2021/05/27 02:13:19;;;;;;;2.67;0.50;;;11.80;99.90;;;11.22;79.03;100542.94;4969379;28;20041;-57
2021/05/27 02:15:45;;;;;;;1.42;0.38;;;11.80;99.90;;;11.23;79.51;100536.75;4969426;28;20069;-56
2021/05/27 02:18:11;;;;;;;1.48;0.40;;;11.70;99.90;;;11.22;79.32;100540.31;4970455;28;20035;-55
2021/05/27 02:20:37;;;;;;;5.45;0.57;;;11.70;99.90;;;11.19;79.46;100535.41;4969941;28;20175;-55
2021/05/27 02:23:03;;;;;;;8.10;0.70;;;11.70;99.90;;;11.18;79.39;100531.16;4969148;28;20147;-57
2021/05/27 02:25:29;;;;;;;6.43;0.73;;;11.70;99.90;;;11.19;79.48;100535.41;4969703;28;20038;-57
2021/05/27 02:27:56;;;;;;;1.98;0.63;;;11.70;99.90;;;11.21;79.28;100531.69;4969086;28;20035;-53
2021/05/27 02:30:23;;;;;;;4.45;0.50;;;11.70;99.90;;;11.28;78.99;100524.91;4969981;28;20066;-56
2021/05/27 02:32:49;;;;;;;2.08;0.47;;;11.70;99.90;;;11.34;78.80;100525.28;4968785;28;20098;-57
2021/05/27 02:35:15;;;;;;;2.60;0.60;;;11.80;99.90;;;11.34;78.66;100523.50;4969443;28;20039;-56
2021/05/27 02:37:41;;;;;;;3.75;0.47;;;11.80;99.90;;;11.38;78.52;100522.22;4968645;28;20454;-56
2021/05/27 02:42:35;;;;;;;3.17;0.60;;;11.80;99.90;;;11.27;79.06;100530.28;5206164;23;20059;-56
2021/05/27 02:45:03;;;;;;;3.35;0.50;;;11.80;99.90;;;11.26;79.26;100526.84;4968447;28;20059;-55
2021/05/27 02:47:29;;;;;;;2.28;0.60;;;11.80;99.90;;;11.24;79.33;100531.38;4953627;28;20023;-54
2021/05/27 02:49:55;;;;;;;5.40;0.70;;;11.80;99.90;;;11.16;79.87;100533.09;4949883;29;20122;-54
2021/05/27 02:52:21;;;;;;;1.60;0.65;;;11.70;99.90;;;11.01;80.50;100534.53;4950141;29;20483;-56
2021/05/27 02:54:46;;;;;;;4.07;0.60;;;11.70;99.90;;;10.89;80.98;100541.72;4969088;28;20053;-53
2021/05/27 02:57:12;;;;;;;2.15;0.60;;;11.50;99.90;;;10.86;81.43;100539.44;4969667;28;20061;-55
2021/05/27 02:59:38;;;;;;;3.42;0.70;;;11.40;99.90;;;10.79;81.85;100531.38;4969122;28;20145;-55
2021/05/27 03:02:04;;;;;;;1.52;0.40;;;11.40;99.90;;;10.74;81.81;100535.38;4969366;28;20090;-51
2021/05/27 03:04:30;;;;;;;11.18;0.95;;;11.30;99.90;;;10.73;81.73;100537.16;4969438;28;20489;-52
2021/05/27 03:06:56;;;;;;;15.63;9.45;;;11.30;99.90;;;10.72;81.69;100530.28;4968713;28;20066;-57
2021/05/27 03:09:22;;;;;;;13.65;6.82;;;11.30;99.90;;;10.78;81.31;100529.72;4969277;28;20058;-51
2021/05/27 03:11:50;;;;;;;10.00;2.25;;;11.30;99.90;;;10.82;80.97;100527.66;4968449;28;20038;-53
2021/05/27 03:14:16;;;;;;;4.40;1.27;;;11.30;99.90;;;10.87;80.93;100533.25;4968484;28;20035;-53
2021/05/27 03:16:42;;;;;;;8.18;0.75;;;11.40;99.90;;;11.02;81.15;100525.75;4968786;28;20101;-48
2021/05/27 03:19:08;;;;;;;4.68;0.65;;;11.50;99.90;;;11.05;81.17;100525.47;4968707;28;20046;-52
2021/05/27 03:21:34;;;;;;;3.47;0.85;;;11.50;99.90;;;11.06;81.71;100529.69;4951226;28;20039;-52
2021/05/27 03:24:00;;;;;;;3.70;0.70;;;11.60;99.90;;;11.09;82.00;100526.81;4968239;28;20430;-54
2021/05/27 03:26:26;;;;;;;2.42;0.57;;;11.60;99.90;;;11.13;82.02;100525.56;4968744;28;20042;-55
2021/05/27 03:28:52;;;;;;;3.88;0.70;;;11.60;99.90;;;11.16;82.08;100527.88;4967892;28;20070;-53
2021/05/27 03:31:18;;;;;;;4.45;0.57;;;11.60;99.90;;;11.21;82.00;100525.66;4968438;28;20051;-53
2021/05/27 03:33:44;;;;;;;3.88;0.50;;;11.70;99.90;;;11.26;82.19;100531.25;4968103;28;20038;-55
2021/05/27 03:36:09;;;;;;;2.35;0.70;;;11.70;99.90;;;11.32;82.24;100528.03;4968086;28;20066;-54
2021/05/27 03:38:35;;;;;;;3.13;0.80;;;11.80;99.90;;;11.38;82.10;100527.44;4968090;28;20461;-54
2021/05/27 03:41:01;;;;;;;5.50;0.70;;;11.90;99.90;;;11.42;81.77;100530.56;4967526;28;20183;-51
2021/05/27 03:43:27;;;;;;;1.13;0.30;;;11.90;99.90;;;11.52;81.21;100539.16;4967660;28;20047;-52
2021/05/27 03:45:53;;;;;;;3.13;0.60;;;12.00;99.90;;;11.75;79.48;100539.53;4967566;28;20091;-53
2021/05/27 03:48:19;;;;;;;4.78;0.60;;;12.20;99.90;;;11.91;78.63;100535.28;4968335;28;20042;-54
2021/05/27 03:50:45;;;;;;;4.65;0.65;;;12.40;99.90;;;11.95;78.37;100535.78;4968120;28;20535;-52
2021/05/27 03:53:11;;;;;;;3.88;0.45;;;12.50;99.90;;;11.97;78.18;100536.47;4967713;28;20034;-53
2021/05/27 03:55:37;;;;;;;2.50;0.50;;;12.50;99.90;;;11.98;78.45;100532.88;4968075;28;20402;-50
2021/05/27 04:00:41;;;;;;;1.88;0.40;;;12.50;99.90;;;12.05;78.24;100536.53;4967281;28;20035;-52
2021/05/27 04:00:49;;;;;;;1.90;0.70;;;12.60;99.90;;;12.14;77.85;100542.63;4967594;28;20158;-55
2021/05/27 04:03:15;;;;;;;1.67;0.60;;;12.70;99.90;;;12.13;78.06;100536.59;4967386;28;20543;-55
2021/05/27 04:08:25;;;;;;;3.03;0.65;;;12.70;99.90;;;12.21;78.18;100541.88;4968226;28;20061;-53
2021/05/27 04:10:51;;;;;;;4.47;0.73;;;12.80;99.90;;;12.28;78.12;100542.09;4967302;28;20517;-53
2021/05/27 04:13:18;;;;;;;3.92;0.75;;;12.80;99.90;;;12.33;78.07;100531.16;4968036;28;20395;-50
2021/05/27 04:15:44;;;;;;;2.58;0.60;;;12.90;99.90;;;12.26;78.43;100533.56;4968065;28;20547;-50
2021/05/27 04:18:15;;;;;;;7.00;0.88;;;12.80;99.90;;;12.30;78.67;100534.88;4967178;28;20406;-50
2021/05/27 04:20:52;;;;;;;4.82;1.23;;;12.90;99.90;;;12.40;78.71;100529.56;4967776;28;20517;-54
2021/05/27 04:23:36;;;;;;;3.20;0.73;;;13.00;99.90;;;12.59;77.90;100529.34;4967528;28;20046;-54
2021/05/27 04:26:14;;;;;;;2.15;0.65;;;13.30;99.90;;;12.81;77.30;100533.19;4971153;28;20106;-51
2021/05/27 04:28:43;;;;;;;4.85;0.65;;;13.40;99.90;;;12.92;76.99;100532.91;4972043;28;20053;-53
2021/05/27 04:31:13;;;;;;;2.40;0.75;;;13.70;99.90;;;12.84;77.19;100533.69;4971372;28;20402;-52
2021/05/27 04:33:46;;;;;;;3.00;0.82;;;13.70;99.90;;;12.93;76.90;100532.75;4971530;28;20070;-53
2021/05/27 04:36:21;;;;;;;2.88;0.90;;;13.80;99.90;;;12.93;76.97;100537.16;4971513;28;20039;-50
2021/05/27 04:38:49;;;;;;;3.30;1.23;;;13.80;99.90;;;12.92;77.13;100533.72;4971451;28;20141;-53
2021/05/27 04:41:16;;;;;;;8.40;1.02;;;13.70;99.90;;;13.09;76.55;100533.78;4970671;28;20133;-48
2021/05/27 04:43:43;;;;;;;3.40;0.82;;;13.90;99.90;;;13.16;76.40;100529.59;4971214;28;20049;-50
2021/05/27 04:46:09;;;;;;;1.35;0.38;;;14.10;99.90;;;13.35;75.96;100537.13;4970880;28;20042;-51
2021/05/27 04:48:37;;;;;;;2.47;0.70;;;14.30;99.90;;;13.67;74.62;100539.00;4971195;28;20458;-55
2021/05/27 04:51:04;;;;;;;3.33;0.45;;;14.70;99.90;;;13.86;73.55;100535.22;4971054;28;20049;-49
2021/05/27 04:53:30;;;;;;;2.45;0.63;;;14.90;99.90;;;13.46;74.70;100529.00;4970846;28;20027;-52
2021/05/27 04:55:58;;;;;;;6.05;0.50;;;14.60;99.90;;;13.51;74.36;100534.56;4971159;28;20031;-52
2021/05/27 04:58:24;;;;;;;2.85;0.60;;;14.50;99.90;;;13.49;74.36;100539.13;4970472;28;20477;-53
2021/05/27 05:00:50;;;;;;;4.15;0.60;;;14.40;99.90;;;13.43;74.62;100545.00;4971183;28;20031;-51
2021/05/27 05:03:17;;;;;;;3.88;0.68;;;14.30;99.90;;;13.65;74.04;100542.75;4970362;28;20041;-52
2021/05/27 05:05:43;;;;;;;2.70;0.60;;;14.40;99.90;;;13.75;73.76;100540.78;4970759;28;20027;-51
2021/05/27 05:08:09;;;;;;;4.35;0.70;;;14.60;99.90;;;13.92;73.27;100545.03;4971116;28;20043;-54
2021/05/27 05:10:36;;;;;;;2.72;0.60;;;14.80;99.90;;;13.64;74.32;100541.13;4970539;28;21656;-51
2021/05/27 05:13:04;;;;;;;4.40;0.57;;;14.60;99.90;;;13.60;74.42;100543.25;4970971;28;20515;-53
2021/05/27 05:15:36;;;;;;;3.75;0.98;;;14.40;99.90;;;13.43;75.02;100550.25;4953035;28;20479;-54
2021/05/27 05:18:08;;;;;;;5.22;1.02;;;14.30;99.90;;;13.41;75.25;100540.91;4971082;28;20037;-51
2021/05/27 05:20:35;;;;;;;4.72;0.52;;;14.20;99.90;;;13.56;74.64;100548.00;4969762;28;20703;-56
2021/05/27 05:23:01;;;;;;;2.22;0.60;;;14.40;99.90;;;13.66;74.52;100552.25;4970707;28;20101;-55
2021/05/27 05:25:30;;;;;;;2.20;0.60;;;14.40;99.90;;;13.80;73.99;100546.34;4970348;28;20027;-57
2021/05/27 05:27:56;;;;;;;4.93;0.65;;;14.50;99.90;;;14.11;72.83;100539.47;4970760;28;20109;-55
2021/05/27 05:30:27;;;;;;;4.03;0.60;;;14.80;99.90;;;14.45;72.01;100544.53;4970055;28;20027;-55
2021/05/27 05:32:53;;;;;;;3.10;0.60;;;15.30;99.90;;;14.68;71.29;100539.34;4970331;28;20035;-53
2021/05/27 05:35:20;;;;;;;3.05;0.82;;;15.60;99.90;;;14.51;71.59;100540.41;4969066;28;20121;-52
2021/05/27 05:37:47;;;;;;;2.20;0.95;;;15.60;99.90;;;14.39;72.07;100537.28;4970151;28;20410;-52
2021/05/27 05:40:18;;;;;;;12.10;2.50;;;15.30;99.90;;;14.37;72.40;100541.06;4970579;28;20413;-56
2021/05/27 05:42:44;;;;;;;7.85;0.90;;;15.10;99.90;;;14.46;72.02;100540.91;4969360;28;20047;-50
2021/05/27 05:45:15;;;;;;;4.75;1.20;;;15.10;99.90;;;14.66;71.39;100543.13;4970188;28;20050;-53
2021/05/27 05:47:42;;;;;;;3.42;0.93;;;15.20;99.90;;;14.49;72.03;100542.38;4969615;28;20034;-50
2021/05/27 05:50:09;;;;;;;6.53;1.25;;;15.20;99.90;;;14.54;71.86;100538.28;4953069;28;20137;-54
2021/05/27 05:52:36;;;;;;;7.82;1.17;;;15.20;99.90;;;14.78;71.11;100536.53;4970042;28;20027;-50
2021/05/27 05:55:04;;;;;;;5.75;0.65;;;15.30;99.90;;;15.03;70.65;100537.25;4970050;28;20431;-55
2021/05/27 05:57:30;;;;;;;4.65;0.40;;;15.70;99.90;;;15.27;69.20;100532.69;4969348;28;20045;-53
2021/05/27 05:59:55;;;;;;;5.97;0.60;;;16.10;99.90;;;15.14;69.71;100529.81;4969641;28;20030;-51
2021/05/27 06:02:21;;;;;;;1.90;0.60;;;16.00;99.90;;;15.00;70.70;100524.50;4969999;28;20093;-54
2021/05/27 06:04:47;;;;;;;2.53;0.60;;;15.90;99.90;;;14.91;71.22;100521.91;4969274;28;20054;-53
2021/05/27 06:07:13;;;;;;;5.38;0.60;;;15.80;99.90;;;14.98;71.14;100518.59;4969821;28;20207;-54
2021/05/27 06:09:39;;;;;;;2.42;0.40;;;15.80;99.90;;;14.84;70.84;100518.31;4969401;28;20120;-51
2021/05/27 06:12:05;;;;;;;4.05;0.60;;;15.70;99.90;;;14.85;71.23;100519.97;4969767;28;20027;-51
2021/05/27 06:14:33;;;;;;;2.30;0.55;;;15.70;99.90;;;14.82;71.24;100522.91;4969188;28;20034;-51
2021/05/27 06:16:59;;;;;;;1.45;0.40;;;15.70;99.90;;;14.93;71.09;100519.91;4962440;28;20035;-52
2021/05/27 06:19:25;;;;;;;2.17;0.43;;;15.70;99.90;;;15.43;69.83;100521.28;4969408;28;20077;-53
2021/05/27 06:21:51;;;;;;;3.95;0.90;;;16.30;99.90;;;16.10;67.63;100524.00;4969099;28;21389;-53
2021/05/27 06:24:16;;;;;;;2.33;0.75;;;17.20;99.90;;;16.27;67.06;100522.88;4969131;28;20038;-53
2021/05/27 06:26:42;;;;;;;2.90;0.40;;;17.70;99.90;;;16.72;66.03;100525.53;4968610;28;20117;-54
2021/05/27 06:29:08;;;;;;;5.72;0.60;;;18.00;99.90;;;17.44;63.40;100523.72;4969402;28;20038;-56
2021/05/27 06:31:34;;;;;;;2.58;0.60;;;18.70;99.90;;;18.55;61.25;100522.16;4969304;28;20109;-56
2021/05/27 06:34:00;;;;;;;4.55;0.60;;;20.10;97.90;;;19.32;58.17;100521.88;4969421;28;20117;-55
2021/05/27 06:36:26;;;;;;;4.15;1.05;;;21.70;90.70;;;18.56;60.65;100521.13;4969030;28;20509;-53
2021/05/27 06:38:52;;;;;;;7.50;0.82;;;21.10;89.00;;;19.20;59.42;100515.53;4967500;28;20043;-54
2021/05/27 06:41:21;;;;;;;6.63;0.47;;;21.40;90.30;;;20.06;56.97;100521.72;4968819;28;20398;-54
2021/05/27 06:43:48;;;;;;;2.63;0.30;;;22.70;82.90;;;20.35;55.48;100520.44;4968219;28;20111;-56
2021/05/27 06:46:15;;;;;;;4.80;0.55;;;23.40;77.20;;;20.50;55.64;100517.59;4969022;28;20043;-53
2021/05/27 06:48:41;;;;;;;1.77;0.20;;;23.40;75.00;;;21.48;52.64;100515.50;4968576;28;20046;-51
2021/05/27 06:51:07;;;;;;;1.88;0.40;;;24.20;72.30;;;22.09;51.24;100517.50;4960728;28;20043;-50
2021/05/27 06:53:33;;;;;;;3.10;0.40;;;25.20;68.10;;;22.32;50.63;100512.34;4961037;28;20070;-54
2021/05/27 06:55:59;;;;;;;4.93;0.75;;;25.40;66.10;;;22.73;49.97;100518.84;4968060;28;20416;-53
2021/05/27 06:58:25;;;;;;;3.55;0.30;;;25.90;64.20;;;21.29;52.59;100521.75;4968605;28;20189;-54
2021/05/27 07:00:51;;;;;;;2.58;0.40;;;25.20;63.00;;;21.20;52.10;100521.19;4968033;28;20035;-50
2021/05/27 07:03:18;;;;;;;2.50;0.50;;;24.40;64.40;;;21.76;50.99;100523.84;4968522;28;20490;-49
2021/05/27 07:05:44;;;;;;;3.92;0.40;;;24.30;65.80;;;21.69;50.69;100523.13;4968289;28;20038;-53
2021/05/27 07:08:12;;;;;;;3.33;0.40;;;24.50;64.70;;;21.46;51.15;100534.28;4968436;28;20405;-54
2021/05/27 07:10:39;;;;;;;2.35;0.30;;;24.30;64.10;;;20.74;52.85;100535.44;4968463;28;20043;-52
2021/05/27 07:13:07;;;;;;;3.55;0.30;;;23.40;67.60;;;21.40;51.51;100529.03;4967600;28;20170;-52
2021/05/27 07:15:34;;;;;;;3.83;0.30;;;23.30;68.60;;;20.91;52.64;100533.13;4968765;28;20041;-52
2021/05/27 07:18:01;;;;;;;2.80;0.30;;;22.40;71.60;;;20.82;53.29;100535.19;4968791;28;20330;-52
2021/05/27 07:20:28;;;;;;;3.92;0.32;;;21.90;74.40;;;20.82;53.10;100527.25;4968708;28;20391;-51
2021/05/27 07:22:55;;;;;;;4.15;0.60;;;21.80;75.50;;;21.22;52.32;100524.47;4968176;28;20048;-56
2021/05/27 07:25:23;;;;;;;5.78;0.43;;;21.90;75.40;;;21.10;52.25;100534.88;4968710;28;20025;-52
2021/05/27 07:27:51;;;;;;;4.00;0.40;;;21.80;76.00;;;20.85;53.54;100526.81;4968518;28;20039;-58
2021/05/27 07:30:19;;;;;;;4.35;0.45;;;21.70;76.70;;;20.61;53.71;100530.19;4961336;28;20031;-52
2021/05/27 07:32:45;;;;;;;3.15;0.47;;;21.50;77.20;;;20.45;53.99;100525.34;4968471;28;20034;-54
2021/05/27 07:35:12;;;;;;;4.30;0.50;;;21.30;77.80;;;20.42;54.01;100531.03;4968314;28;20045;-56
2021/05/27 07:37:38;;;;;;;2.80;0.52;;;21.20;78.20;;;21.01;52.77;100532.69;4968645;28;20034;-51
2021/05/27 07:40:06;;;;;;;2.05;0.57;;;21.50;78.80;;;20.88;52.79;100530.88;4969029;28;20093;-57
2021/05/27 07:42:34;;;;;;;4.22;0.65;;;21.70;77.80;;;20.88;53.35;100534.34;4968506;28;20097;-56
2021/05/27 07:45:00;;;;;;;4.28;0.93;;;21.70;78.70;;;21.13;53.37;100533.66;4969091;28;20379;-60
2021/05/27 07:47:29;;;;;;;2.22;0.40;;;21.90;78.60;;;21.33;52.36;100534.34;4968857;28;20039;-48
2021/05/27 07:49:55;;;;;;;3.08;0.47;;;22.00;77.90;;;21.28;52.61;100531.53;4968178;28;20039;-50
2021/05/27 07:52:21;;;;;;;3.35;0.30;;;21.90;78.50;;;21.42;51.95;100541.03;4968738;28;20115;-56
2021/05/27 07:54:48;;;;;;;3.40;0.50;;;21.90;78.10;;;21.39;51.81;100538.81;4969022;28;20031;-55
2021/05/27 07:57:17;;;;;;;5.93;0.50;;;21.90;78.00;;;21.37;52.17;100535.56;4968499;28;20043;-57
2021/05/27 07:59:43;;;;;;;2.50;0.30;;;21.90;78.40;;;21.43;51.62;100540.00;4968096;28;20035;-50
2021/05/27 08:02:10;;;;;;;3.67;0.40;;;22.00;77.90;;;21.82;51.29;100536.25;4950581;28;20411;-52
2021/05/27 08:04:36;;;;;;;2.72;0.40;;;22.30;77.70;;;22.40;49.53;100535.97;4967673;28;20035;-58
2021/05/27 08:07:02;;;;;;;2.58;0.50;;;22.80;75.80;;;22.10;49.65;100538.50;4968272;28;20031;-55
2021/05/27 08:09:28;;;;;;;2.50;0.40;;;22.90;73.50;;;22.27;49.68;100537.94;4967633;28;20560;-58
2021/05/27 08:11:54;;;;;;;2.72;0.57;;;23.10;73.90;;;22.55;49.61;100526.81;4968141;28;20225;-56
2021/05/27 08:14:20;;;;;;;5.22;0.60;;;23.30;73.20;;;22.69;48.25;100529.09;4967977;28;20037;-53
2021/05/27 08:16:47;;;;;;;3.47;0.30;;;23.30;72.40;;;22.94;46.36;100526.38;4967584;28;20159;-53
2021/05/27 08:19:13;;;;;;;5.43;0.30;;;23.50;69.70;;;22.72;45.90;100528.66;4968052;28;20034;-56
2021/05/27 08:21:40;;;;;;;3.72;0.40;;;23.70;67.10;;;22.52;46.46;100533.38;4967405;28;20149;-54
2021/05/27 08:24:07;;;;;;;3.63;0.50;;;23.60;67.00;;;22.76;46.79;100529.00;4968025;28;20042;-55
2021/05/27 08:26:32;;;;;;;2.15;0.38;;;23.70;67.60;;;22.71;47.04;100528.88;4968129;28;20023;-58
2021/05/27 08:28:59;;;;;;;2.03;0.30;;;23.80;67.60;;;23.10;46.44;100524.94;4967408;28;20035;-55
2021/05/27 08:31:25;;;;;;;3.15;0.38;;;23.90;68.20;;;23.29;46.10;100523.03;4968046;28;20034;-51
2021/05/27 08:33:51;;;;;;;2.20;0.45;;;24.10;67.60;;;22.90;46.48;100524.38;4967303;28;20039;-54
2021/05/27 08:36:18;;;;;;;5.70;0.47;;;24.00;67.10;;;23.16;46.52;100519.50;4950814;28;20045;-54
2021/05/27 08:38:44;;;;;;;4.03;0.57;;;24.00;68.00;;;22.66;47.53;100518.94;4967907;28;20039;-54
2021/05/27 08:41:12;;;;;;;1.20;0.30;;;23.60;69.20;;;22.66;47.46;100520.78;4967653;28;20035;-54
2021/05/27 08:43:38;;;;;;;4.38;0.80;;;23.60;67.50;;;23.22;46.20;100517.00;4967314;28;20070;-51
2021/05/27 08:46:06;;;;;;;3.22;0.45;;;23.60;69.00;;;23.83;44.67;100522.03;4967353;28;20101;-49
2021/05/27 08:48:32;;;;;;;2.45;0.35;;;24.10;67.50;;;23.21;46.51;100518.84;4966969;28;20031;-54
2021/05/27 08:50:59;;;;;;;4.22;0.40;;;24.00;67.50;;;23.54;46.15;100515.75;4967322;28;20094;-52
2021/05/27 08:53:27;;;;;;;3.35;0.60;;;24.00;68.20;;;23.98;45.51;100518.91;4966519;28;20035;-51
2021/05/27 08:55:53;;;;;;;5.70;0.40;;;24.30;68.10;;;24.73;44.14;100518.94;4966966;28;20350;-56
2021/05/27 08:58:21;;;;;;;2.50;0.43;;;25.00;67.60;;;24.56;44.62;100518.09;4966706;28;20485;-53
2021/05/27 09:00:47;;;;;;;3.38;0.35;;;25.30;66.40;;;24.47;45.27;100510.44;4967127;28;20121;-54
2021/05/27 09:03:15;;;;;;;4.22;0.40;;;25.10;67.20;;;23.74;46.96;100505.59;4966919;28;20122;-55
2021/05/27 09:05:41;;;;;;;3.38;0.60;;;24.70;68.00;;;22.96;49.24;100503.06;4941768;28;20042;-54
2021/05/27 09:08:10;;;;;;;3.28;0.70;;;23.90;70.40;;;23.07;48.80;100509.44;4967316;28;20121;-49
2021/05/27 09:10:47;;;;;;;2.90;1.00;;;23.70;71.30;;;23.57;46.87;100501.19;4967219;28;20121;-53
2021/05/27 09:13:17;;;;;;;5.75;0.60;;;24.00;70.10;;;23.95;46.96;100504.22;4971075;28;20146;-53
2021/05/27 09:15:45;;;;;;;3.80;0.47;;;24.40;69.90;;;23.75;47.61;100501.06;4952698;28;20105;-55
2021/05/27 09:18:12;;;;;;;8.65;0.75;;;24.30;70.10;;;24.52;45.67;100501.75;4968415;28;20113;-49
2021/05/27 09:20:38;;;;;;;4.38;1.08;;;24.70;69.70;;;24.31;46.50;100502.38;4969528;28;20053;-49
2021/05/27 09:23:21;;;;;;;7.75;0.60;;;24.70;69.30;;;24.09;47.13;100502.94;4962612;28;20043;-52
2021/05/27 09:26:11;;;;;;;6.20;0.57;;;24.50;70.20;;;24.72;46.14;100502.16;4954615;28;20046;-52
2021/05/27 09:28:37;;;;;;;6.35;0.70;;;25.00;69.80;;;25.27;45.13;100492.78;4947692;28;20046;-51
2021/05/27 09:31:11;;;;;;;10.23;0.70;;;25.50;69.50;;;25.84;43.95;100493.47;4968974;28;20057;-49
2021/05/27 09:33:46;;;;;;;2.75;0.60;;;26.00;68.80;;;26.10;42.85;100498.13;4964846;28;20058;-52
2021/05/27 09:36:15;;;;;;;9.77;1.50;;;26.50;66.40;;;25.63;44.29;100486.19;4970266;28;20039;-49
2021/05/27 09:38:52;;;;;;;4.80;0.90;;;26.30;65.70;;;25.81;43.44;100495.81;4967834;28;20158;-52
2021/05/27 09:41:35;;;;;;;7.90;0.80;;;26.20;66.40;;;25.72;43.85;100492.75;4970559;28;20050;-54
2021/05/27 09:44:01;;;;;;;8.55;1.55;;;26.20;66.50;;;26.13;43.19;100492.28;4970068;28;20188;-56
2021/05/27 09:46:31;;;;;;;5.53;1.40;;;26.60;66.00;;;26.30;42.04;100486.09;4970523;28;20510;-52
2021/05/27 09:49:09;;;;;;;4.63;0.80;;;26.80;63.90;;;25.56;43.55;100485.53;4952775;28;20593;-49
2021/05/27 09:51:37;;;;;;;8.10;1.13;;;26.30;64.40;;;25.95;43.53;100486.44;4963569;28;20023;-55
2021/05/27 09:54:04;;;;;;;5.85;0.68;;;26.40;65.20;;;26.15;42.39;100483.22;4970319;28;20742;-52
2021/05/27 09:56:41;;;;;;;3.40;0.60;;;26.60;64.20;;;26.50;41.34;100486.38;4969923;28;20122;-51
2021/05/27 09:59:10;;;;;;;4.75;0.60;;;26.80;63.20;;;26.73;40.85;100491.47;4964508;28;20741;-49
2021/05/27 10:01:39;;;;;;;6.65;0.63;;;27.20;62.20;;;26.02;40.57;100484.38;4965805;28;20042;-57
2021/05/27 10:04:16;;;;;;;3.33;1.30;;;26.80;60.00;;;25.16;41.94;100481.13;4966077;28;20035;-50
2021/05/27 10:06:43;;;;;;;9.13;1.10;;;26.10;60.50;;;25.20;42.12;100478.78;4968652;28;20586;-51
2021/05/27 10:09:10;;;;;;;4.55;0.70;;;25.80;61.60;;;25.71;41.36;100481.28;4951954;28;20042;-56
2021/05/27 10:11:40;;;;;;;4.80;1.00;;;26.00;61.70;;;25.83;41.38;100475.84;4951021;28;20038;-52
2021/05/27 10:14:07;;;;;;;3.80;0.80;;;26.30;61.60;;;26.37;40.92;100468.88;4969474;28;20120;-52
2021/05/27 10:16:37;;;;;;;9.50;1.13;;;26.70;61.70;;;26.55;40.19;100464.25;4952227;28;20035;-52
2021/05/27 10:19:05;;;;;;;8.07;1.30;;;27.10;60.10;;;25.93;41.26;100472.53;4968529;28;20030;-50
2021/05/27 10:21:31;;;;;;;5.28;0.60;;;26.70;60.10;;;25.84;40.96;100472.13;4969006;28;20043;-53